Manila Express — VRCX7 — position and weather

sailwx.info

Track history (hours):
 
Tides and Currents Weather Stations Pressure Air Temp Water Temp Dewpoint Dewpoint Depression Visibility Wind Speed Wind Dir Waves Ship Positions

Manila Express

Last reported at 2015-Aug-01 19:19 UTC. Time now 2015-Aug-02 06:22 UTC.
Position N 34°58' E 023°13'.

Length 260 m; draft 11.2 m.

Type: Ship (hazmat cat A). MMSI: 477830800.

Date/timePositionNaut miles runAvg speedWind from/ knotsBaromVisibWave heightAir tempDewpointWater temp
2015-Aug-01 19:19N 34°58' E 023°13'2619.9
2015-Aug-01 18:00N 35°06' E 022°42'12 8.2 050 / 101016.2 5.4 0.527.024.125.0
2015-Aug-01 16:31N 35°15' E 022°32'33714.3
2015-Jul-31 17:00N 37°36' E 016°12'812.1 200 / 101013.1 5.4 1.032.025.030.0
2015-Jul-31 16:20N 37°43' E 016°07'1213.8
2015-Jul-31 15:28N 37°48' E 015°53'1213.7
2015-Jul-31 14:33N 37°53' E 015°38'1111.3
2015-Jul-31 13:33N 38°03' E 015°33'1414.1
2015-Jul-31 12:33N 38°16' E 015°41'1514.9
2015-Jul-31 11:34N 38°28' E 015°28'1515.4
2015-Jul-31 10:33N 38°39' E 015°15'1615.2
2015-Jul-31 09:32N 38°50' E 015°01'1515.3
2015-Jul-31 08:33N 38°60' E 014°46'1515.3
2015-Jul-31 07:33N 39°10' E 014°32'1515.3
2015-Jul-31 06:33N 39°20' E 014°17'1515.0
2015-Jul-31 05:33N 39°30' E 014°02'1313.4
2015-Jul-31 04:33N 39°39' E 013°49'1313.2
2015-Jul-31 03:33N 39°47' E 013°36'1313.2
2015-Jul-31 02:33N 39°56' E 013°23'1413.3
2015-Jul-31 01:32N 40°05' E 013°10'1313.5
2015-Jul-31 00:33N 40°14' E 012°57'1313.4
2015-Jul-30 23:33N 40°22' E 012°44'1313.4
2015-Jul-30 22:33N 40°31' E 012°30'1313.5
2015-Jul-30 21:33N 40°40' E 012°17'1413.7
2015-Jul-30 20:33N 40°49' E 012°03'1413.7
2015-Jul-30 19:33N 40°58' E 011°50'1413.7
2015-Jul-30 18:33N 41°07' E 011°36'1413.6
2015-Jul-30 17:33N 41°16' E 011°22'1413.5
2015-Jul-30 16:33N 41°25' E 011°09'1313.3
2015-Jul-30 15:33N 41°34' E 010°56'1313.4
2015-Jul-30 14:33N 41°43' E 010°42'1413.9
2015-Jul-30 13:33N 41°52' E 010°28'1413.5
2015-Jul-30 12:33N 42°00' E 010°14'1313.3
2015-Jul-30 11:33N 42°09' E 010°01'1513.4
2015-Jul-30 10:25N 42°24' E 009°54'1213.9
2015-Jul-30 09:33N 42°35' E 009°49'1514.8
2015-Jul-30 08:34N 42°49' E 009°42'1514.1
2015-Jul-30 07:31N 43°03' E 009°37'1414.5
2015-Jul-30 06:34N 43°17' E 009°32'1414.4
2015-Jul-30 05:34N 43°30' E 009°25'1514.7
2015-Jul-30 04:34N 43°44' E 009°18'1514.9
2015-Jul-30 03:34N 43°58' E 009°10'1514.5
2015-Jul-30 02:34N 44°11' E 009°03'1312.8
2015-Jul-30 01:33N 44°23' E 008°57'2 2.1
2015-Jul-30 00:31N 44°24' E 008°54'0 0.0
2015-Jul-29 23:31N 44°24' E 008°54'0 0.0
2015-Jul-29 22:31N 44°24' E 008°54'0 0.0
2015-Jul-29 21:31N 44°24' E 008°54'0 0.0
2015-Jul-29 20:31N 44°24' E 008°54'0 0.0
2015-Jul-29 19:31N 44°24' E 008°54'0 0.0
2015-Jul-29 18:31N 44°24' E 008°54'0 0.0
2015-Jul-29 17:31N 44°24' E 008°54'0 0.0
2015-Jul-29 16:31N 44°24' E 008°54'0 0.0
2015-Jul-29 15:31N 44°24' E 008°54'0 0.0
2015-Jul-29 14:28N 44°24' E 008°54'0 0.0
2015-Jul-29 13:31N 44°24' E 008°54'0 0.0
2015-Jul-29 12:28N 44°24' E 008°54'0 0.0
2015-Jul-29 11:31N 44°24' E 008°54'0 0.0
2015-Jul-29 10:31N 44°24' E 008°54'0 0.0
2015-Jul-29 09:31N 44°24' E 008°54'0 0.0
2015-Jul-29 08:34N 44°24' E 008°54'0 0.0
2015-Jul-29 07:33N 44°24' E 008°54'0 0.0
2015-Jul-29 06:33N 44°24' E 008°54'0 0.0
2015-Jul-29 05:33N 44°24' E 008°54'1 0.6
2015-Jul-29 04:33N 44°24' E 008°54'5 5.2
2015-Jul-29 03:33N 44°20' E 008°59'1312.6
2015-Jul-29 02:34N 44°12' E 008°46'1413.5
2015-Jul-29 01:34N 44°03' E 008°32'1514.9
2015-Jul-29 00:32N 43°53' E 008°16'1818.9
2015-Jul-28 23:33N 43°41' E 007°56'1918.9
2015-Jul-28 22:33N 43°28' E 007°37'1919.4
2015-Jul-28 21:33N 43°16' E 007°17'1919.3
2015-Jul-28 20:33N 43°03' E 006°57'1918.8
2015-Jul-28 19:34N 42°51' E 006°37'1918.7
2015-Jul-28 18:34N 42°38' E 006°18'1918.8
2015-Jul-28 17:33N 42°26' E 005°59'1919.2
2015-Jul-28 16:33N 42°14' E 005°39'1919.0
2015-Jul-28 15:33N 42°01' E 005°19'1919.1
2015-Jul-28 14:33N 41°48' E 005°01'12615.8
2015-Jul-28 06:33N 40°26' E 002°54'2814.0
2015-Jul-28 04:33N 40°07' E 002°26'1413.4
2015-Jul-28 03:30N 39°58' E 002°12'1313.2
2015-Jul-28 02:29N 39°49' E 001°59'1213.2
2015-Jul-28 01:33N 39°41' E 001°47'1312.8
2015-Jul-28 00:30N 39°33' E 001°34'1313.4
2015-Jul-27 23:33N 39°23' E 001°23'1414.1
2015-Jul-27 22:33N 39°11' E 001°13'1414.0
2015-Jul-27 21:34N 38°60' E 001°03'1413.9
2015-Jul-27 20:33N 38°48' E 000°54'1413.9
2015-Jul-27 19:33N 38°36' E 000°45'1413.9
2015-Jul-27 18:33N 38°24' E 000°36'1526.7
2015-Jul-27 18:00N 38°12' E 000°24'2 5.5 200 / 51016.1 5.4 0.534.030.035.0
2015-Jul-27 17:33N 38°12' E 000°27'1313.0
2015-Jul-27 16:34N 38°01' E 000°19'1313.0
2015-Jul-27 15:33N 37°50' E 000°10'1313.3
2015-Jul-27 14:33N 37°39' E 000°02'1313.4
2015-Jul-27 13:33N 37°27' W 000°07'1313.3
2015-Jul-27 12:33N 37°16' W 000°16'1312.9
2015-Jul-27 11:33N 37°07' W 000°27'1413.5
2015-Jul-27 10:33N 37°00' W 000°42'1413.9
2015-Jul-27 09:33N 36°54' W 000°58'1817.6
2015-Jul-27 08:33N 36°45' W 001°17'2322.6
2015-Jul-27 07:33N 36°34' W 001°42'20313.9
2015-Jul-26 17:00N 35°54' W 005°48'3418.8 350 / 151017.2 5.4 1.027.022.625.0
2015-Jul-26 15:11N 35°53' W 006°30'914.8
2015-Jul-26 14:33N 35°56' W 006°41'1514.6
2015-Jul-26 13:33N 36°00' W 006°58'1414.4
2015-Jul-26 12:33N 36°04' W 007°15'1414.2
2015-Jul-26 11:33N 36°08' W 007°32'1414.0
2015-Jul-26 10:33N 36°12' W 007°49'1413.8
2015-Jul-26 09:33N 36°16' W 008°05'1413.7
2015-Jul-26 08:33N 36°20' W 008°21'1716.8
2015-Jul-26 07:33N 36°25' W 008°41'1919.4
2015-Jul-26 06:34N 36°30' W 009°05'1414.0
2015-Jul-26 05:34N 36°35' W 009°21'1413.8
2015-Jul-26 04:33N 36°46' W 009°32'1414.1
2015-Jul-26 03:33N 36°59' W 009°37'1413.9
2015-Jul-26 02:33N 37°13' W 009°41'1414.5
2015-Jul-26 01:34N 37°27' W 009°44'1414.2
2015-Jul-26 00:33N 37°41' W 009°48'1514.5
2015-Jul-25 23:33N 37°55' W 009°53'1414.5
2015-Jul-25 22:33N 38°09' W 009°57'1414.3
2015-Jul-25 21:33N 38°23' W 010°01'1414.3
2015-Jul-25 20:34N 38°37' W 010°05'1414.1
2015-Jul-25 19:33N 38°51' W 010°07'1413.9
2015-Jul-25 18:33N 39°05' W 010°07'2 3.1
2015-Jul-25 18:00N 39°06' W 010°06'1329.4 010 / 151018.310.8 1.519.015.6
2015-Jul-25 17:33N 39°19' W 010°07'1414.1
2015-Jul-25 16:33N 39°33' W 010°07'1413.8
2015-Jul-25 15:33N 39°47' W 010°07'1413.7
2015-Jul-25 14:32N 40°01' W 010°07'1413.9
2015-Jul-25 13:33N 40°14' W 010°06'27914.3
2015-Jul-24 18:00N 44°48' W 008°54'44113.2 330 / 341019.310.8 2.017.013.5
2015-Jul-23 08:31N 49°45' W 000°53'1414.4
2015-Jul-23 07:33N 49°40' W 000°33'1414.3
2015-Jul-23 06:33N 49°33' W 000°13'1312.8
2015-Jul-23 05:33N 49°29' E 000°05'3 2.6
2015-Jul-23 04:30N 49°28' E 000°09'0 0.0
2015-Jul-23 03:33N 49°28' E 000°09'0 0.0
2015-Jul-23 02:33N 49°28' E 000°09'0 0.0
2015-Jul-23 01:33N 49°28' E 000°09'0 0.0
2015-Jul-23 00:33N 49°28' E 000°09'0 0.0
2015-Jul-22 23:33N 49°28' E 000°09'0 0.0
2015-Jul-22 22:33N 49°28' E 000°09'0 0.0
2015-Jul-22 21:33N 49°28' E 000°09'0 0.0
2015-Jul-22 20:33N 49°28' E 000°09'0 0.0
2015-Jul-22 19:33N 49°28' E 000°09'  
Track history (hours):
 
Tides and Currents Weather Stations Pressure Air Temp Water Temp Dewpoint Dewpoint Depression Visibility Wind Speed Wind Dir Waves Ship Positions

Manila Express

Last reported at 2015-Aug-01 19:19 UTC. Time now 2015-Aug-02 06:22 UTC.
Position N 34°58' E 023°13'.

Length 260 m; draft 11.2 m.

Type: Ship (hazmat cat A). MMSI: 477830800.

Date/timePositionNaut miles runAvg speedWind from/ knotsBaromVisibWave heightAir tempDewpointWater temp
2015-Aug-01 19:19N 34°58' E 023°13'2619.9
2015-Aug-01 18:00N 35°06' E 022°42'12 8.2 050 / 101016.2 5.4 0.527.024.125.0
2015-Aug-01 16:31N 35°15' E 022°32'33714.3
2015-Jul-31 17:00N 37°36' E 016°12'812.1 200 / 101013.1 5.4 1.032.025.030.0
2015-Jul-31 16:20N 37°43' E 016°07'1213.8
2015-Jul-31 15:28N 37°48' E 015°53'1213.7
2015-Jul-31 14:33N 37°53' E 015°38'1111.3
2015-Jul-31 13:33N 38°03' E 015°33'1414.1
2015-Jul-31 12:33N 38°16' E 015°41'1514.9
2015-Jul-31 11:34N 38°28' E 015°28'1515.4
2015-Jul-31 10:33N 38°39' E 015°15'1615.2
2015-Jul-31 09:32N 38°50' E 015°01'1515.3
2015-Jul-31 08:33N 38°60' E 014°46'1515.3
2015-Jul-31 07:33N 39°10' E 014°32'1515.3
2015-Jul-31 06:33N 39°20' E 014°17'1515.0
2015-Jul-31 05:33N 39°30' E 014°02'1313.4
2015-Jul-31 04:33N 39°39' E 013°49'1313.2
2015-Jul-31 03:33N 39°47' E 013°36'1313.2
2015-Jul-31 02:33N 39°56' E 013°23'1413.3
2015-Jul-31 01:32N 40°05' E 013°10'1313.5
2015-Jul-31 00:33N 40°14' E 012°57'1313.4
2015-Jul-30 23:33N 40°22' E 012°44'1313.4
2015-Jul-30 22:33N 40°31' E 012°30'1313.5
2015-Jul-30 21:33N 40°40' E 012°17'1413.7
2015-Jul-30 20:33N 40°49' E 012°03'1413.7
2015-Jul-30 19:33N 40°58' E 011°50'1413.7
2015-Jul-30 18:33N 41°07' E 011°36'1413.6
2015-Jul-30 17:33N 41°16' E 011°22'1413.5
2015-Jul-30 16:33N 41°25' E 011°09'1313.3
2015-Jul-30 15:33N 41°34' E 010°56'1313.4
2015-Jul-30 14:33N 41°43' E 010°42'1413.9
2015-Jul-30 13:33N 41°52' E 010°28'1413.5
2015-Jul-30 12:33N 42°00' E 010°14'1313.3
2015-Jul-30 11:33N 42°09' E 010°01'1513.4
2015-Jul-30 10:25N 42°24' E 009°54'1213.9
2015-Jul-30 09:33N 42°35' E 009°49'1514.8
2015-Jul-30 08:34N 42°49' E 009°42'1514.1
2015-Jul-30 07:31N 43°03' E 009°37'1414.5
2015-Jul-30 06:34N 43°17' E 009°32'1414.4
2015-Jul-30 05:34N 43°30' E 009°25'1514.7
2015-Jul-30 04:34N 43°44' E 009°18'1514.9
2015-Jul-30 03:34N 43°58' E 009°10'1514.5
2015-Jul-30 02:34N 44°11' E 009°03'1312.8
2015-Jul-30 01:33N 44°23' E 008°57'2 2.1
2015-Jul-30 00:31N 44°24' E 008°54'0 0.0
2015-Jul-29 23:31N 44°24' E 008°54'0 0.0
2015-Jul-29 22:31N 44°24' E 008°54'0 0.0
2015-Jul-29 21:31N 44°24' E 008°54'0 0.0
2015-Jul-29 20:31N 44°24' E 008°54'0 0.0
2015-Jul-29 19:31N 44°24' E 008°54'0 0.0
2015-Jul-29 18:31N 44°24' E 008°54'0 0.0
2015-Jul-29 17:31N 44°24' E 008°54'0 0.0
2015-Jul-29 16:31N 44°24' E 008°54'0 0.0
2015-Jul-29 15:31N 44°24' E 008°54'0 0.0
2015-Jul-29 14:28N 44°24' E 008°54'0 0.0
2015-Jul-29 13:31N 44°24' E 008°54'0 0.0
2015-Jul-29 12:28N 44°24' E 008°54'0 0.0
2015-Jul-29 11:31N 44°24' E 008°54'0 0.0
2015-Jul-29 10:31N 44°24' E 008°54'0 0.0
2015-Jul-29 09:31N 44°24' E 008°54'0 0.0
2015-Jul-29 08:34N 44°24' E 008°54'0 0.0
2015-Jul-29 07:33N 44°24' E 008°54'0 0.0
2015-Jul-29 06:33N 44°24' E 008°54'0 0.0
2015-Jul-29 05:33N 44°24' E 008°54'1 0.6
2015-Jul-29 04:33N 44°24' E 008°54'5 5.2
2015-Jul-29 03:33N 44°20' E 008°59'1312.6
2015-Jul-29 02:34N 44°12' E 008°46'1413.5
2015-Jul-29 01:34N 44°03' E 008°32'1514.9
2015-Jul-29 00:32N 43°53' E 008°16'1818.9
2015-Jul-28 23:33N 43°41' E 007°56'1918.9
2015-Jul-28 22:33N 43°28' E 007°37'1919.4
2015-Jul-28 21:33N 43°16' E 007°17'1919.3
2015-Jul-28 20:33N 43°03' E 006°57'1918.8
2015-Jul-28 19:34N 42°51' E 006°37'1918.7
2015-Jul-28 18:34N 42°38' E 006°18'1918.8
2015-Jul-28 17:33N 42°26' E 005°59'1919.2
2015-Jul-28 16:33N 42°14' E 005°39'1919.0
2015-Jul-28 15:33N 42°01' E 005°19'1919.1
2015-Jul-28 14:33N 41°48' E 005°01'12615.8
2015-Jul-28 06:33N 40°26' E 002°54'2814.0
2015-Jul-28 04:33N 40°07' E 002°26'1413.4
2015-Jul-28 03:30N 39°58' E 002°12'1313.2
2015-Jul-28 02:29N 39°49' E 001°59'1213.2
2015-Jul-28 01:33N 39°41' E 001°47'1312.8
2015-Jul-28 00:30N 39°33' E 001°34'1313.4
2015-Jul-27 23:33N 39°23' E 001°23'1414.1
2015-Jul-27 22:33N 39°11' E 001°13'1414.0
2015-Jul-27 21:34N 38°60' E 001°03'1413.9
2015-Jul-27 20:33N 38°48' E 000°54'1413.9
2015-Jul-27 19:33N 38°36' E 000°45'1413.9
2015-Jul-27 18:33N 38°24' E 000°36'1526.7
2015-Jul-27 18:00N 38°12' E 000°24'2 5.5 200 / 51016.1 5.4 0.534.030.035.0
2015-Jul-27 17:33N 38°12' E 000°27'1313.0
2015-Jul-27 16:34N 38°01' E 000°19'1313.0
2015-Jul-27 15:33N 37°50' E 000°10'1313.3
2015-Jul-27 14:33N 37°39' E 000°02'1313.4
2015-Jul-27 13:33N 37°27' W 000°07'1313.3
2015-Jul-27 12:33N 37°16' W 000°16'1312.9
2015-Jul-27 11:33N 37°07' W 000°27'1413.5
2015-Jul-27 10:33N 37°00' W 000°42'1413.9
2015-Jul-27 09:33N 36°54' W 000°58'1817.6
2015-Jul-27 08:33N 36°45' W 001°17'2322.6
2015-Jul-27 07:33N 36°34' W 001°42'20313.9
2015-Jul-26 17:00N 35°54' W 005°48'3418.8 350 / 151017.2 5.4 1.027.022.625.0
2015-Jul-26 15:11N 35°53' W 006°30'914.8
2015-Jul-26 14:33N 35°56' W 006°41'1514.6
2015-Jul-26 13:33N 36°00' W 006°58'1414.4
2015-Jul-26 12:33N 36°04' W 007°15'1414.2
2015-Jul-26 11:33N 36°08' W 007°32'1414.0
2015-Jul-26 10:33N 36°12' W 007°49'1413.8
2015-Jul-26 09:33N 36°16' W 008°05'1413.7
2015-Jul-26 08:33N 36°20' W 008°21'1716.8
2015-Jul-26 07:33N 36°25' W 008°41'1919.4
2015-Jul-26 06:34N 36°30' W 009°05'1414.0
2015-Jul-26 05:34N 36°35' W 009°21'1413.8
2015-Jul-26 04:33N 36°46' W 009°32'1414.1
2015-Jul-26 03:33N 36°59' W 009°37'1413.9
2015-Jul-26 02:33N 37°13' W 009°41'1414.5
2015-Jul-26 01:34N 37°27' W 009°44'1414.2
2015-Jul-26 00:33N 37°41' W 009°48'1514.5
2015-Jul-25 23:33N 37°55' W 009°53'1414.5
2015-Jul-25 22:33N 38°09' W 009°57'1414.3
2015-Jul-25 21:33N 38°23' W 010°01'1414.3
2015-Jul-25 20:34N 38°37' W 010°05'1414.1
2015-Jul-25 19:33N 38°51' W 010°07'1413.9
2015-Jul-25 18:33N 39°05' W 010°07'2 3.1
2015-Jul-25 18:00N 39°06' W 010°06'1329.4 010 / 151018.310.8 1.519.015.6
2015-Jul-25 17:33N 39°19' W 010°07'1414.1
2015-Jul-25 16:33N 39°33' W 010°07'1413.8
2015-Jul-25 15:33N 39°47' W 010°07'1413.7
2015-Jul-25 14:32N 40°01' W 010°07'1413.9
2015-Jul-25 13:33N 40°14' W 010°06'27914.3
2015-Jul-24 18:00N 44°48' W 008°54'44113.2 330 / 341019.310.8 2.017.013.5
2015-Jul-23 08:31N 49°45' W 000°53'1414.4
2015-Jul-23 07:33N 49°40' W 000°33'1414.3
2015-Jul-23 06:33N 49°33' W 000°13'1312.8
2015-Jul-23 05:33N 49°29' E 000°05'3 2.6
2015-Jul-23 04:30N 49°28' E 000°09'0 0.0
2015-Jul-23 03:33N 49°28' E 000°09'0 0.0
2015-Jul-23 02:33N 49°28' E 000°09'0 0.0
2015-Jul-23 01:33N 49°28' E 000°09'0 0.0
2015-Jul-23 00:33N 49°28' E 000°09'0 0.0
2015-Jul-22 23:33N 49°28' E 000°09'0 0.0
2015-Jul-22 22:33N 49°28' E 000°09'0 0.0
2015-Jul-22 21:33N 49°28' E 000°09'0 0.0
2015-Jul-22 20:33N 49°28' E 000°09'0 0.0
2015-Jul-22 19:33N 49°28' E 000°09'  

Dump ship's entire track history